createdAt,value
2022-11-27T00:03:56.349Z,15.53
2022-11-27T00:08:00.600Z,12.53
2022-11-27T00:12:03.417Z,12.47
2022-11-27T00:16:07.210Z,12.53
2022-11-27T00:20:12.963Z,9.53
2022-11-27T00:24:17.106Z,9.50
2022-11-27T00:28:20.553Z,11.83
2022-11-27T00:32:23.281Z,14.10
2022-11-27T00:36:26.510Z,13.97
2022-11-27T00:40:30.599Z,11.97
2022-11-27T00:44:34.349Z,13.07
2022-11-27T00:48:37.097Z,10.23
2022-11-27T00:52:40.056Z,10.80
2022-11-27T00:56:44.233Z,14.00
2022-11-27T01:00:46.911Z,11.87
2022-11-27T01:04:50.244Z,12.23
2022-11-27T01:08:53.334Z,13.33
2022-11-27T01:12:57.423Z,13.37
2022-11-27T01:17:00.472Z,9.53
2022-11-27T01:21:04.160Z,9.50
2022-11-27T01:25:08.490Z,16.27
2022-11-27T01:29:12.745Z,13.90
2022-11-27T01:33:15.569Z,13.30
2022-11-27T01:37:18.259Z,10.50
2022-11-27T01:41:22.995Z,13.57
2022-11-27T01:45:27.109Z,9.50
2022-11-27T01:49:33.680Z,11.13
2022-11-27T01:53:36.410Z,12.30
2022-11-27T01:57:44.176Z,10.20
2022-11-27T02:01:48.293Z,10.77
2022-11-27T02:05:51.107Z,12.43
2022-11-27T02:09:53.910Z,9.43
2022-11-27T02:14:04.207Z,7.63
2022-11-27T02:18:19.474Z,8.80
2022-11-27T02:22:37.111Z,10.00
2022-11-27T02:27:04.506Z,7.93
2022-11-27T02:31:17.060Z,12.00
2022-11-27T02:35:24.474Z,10.43
2022-11-27T02:39:34.860Z,8.77
2022-11-27T02:43:40.832Z,9.53
2022-11-27T02:47:47.966Z,11.07
2022-11-27T02:51:55.886Z,10.57
2022-11-27T02:56:00.429Z,9.90
2022-11-27T03:00:04.729Z,10.27
2022-11-27T03:04:12.200Z,13.50
2022-11-27T03:08:22.621Z,12.17
2022-11-27T03:12:25.341Z,9.53
2022-11-27T03:16:33.990Z,9.37
2022-11-27T03:20:42.080Z,8.23
2022-11-27T03:24:45.027Z,9.07
2022-11-27T03:28:49.257Z,8.93
2022-11-27T03:32:52.231Z,8.43
2022-11-27T03:36:56.675Z,13.97
2022-11-27T03:41:07.884Z,10.47
2022-11-27T03:45:18.199Z,9.87
2022-11-27T03:49:38.129Z,11.00
2022-11-27T03:53:53.180Z,8.83
2022-11-27T03:58:01.478Z,9.07
2022-11-27T04:02:04.332Z,7.70
2022-11-27T04:06:07.453Z,8.33
2022-11-27T04:10:12.802Z,11.17
2022-11-27T04:14:15.510Z,8.03
2022-11-27T04:18:18.278Z,7.13
2022-11-27T04:22:20.990Z,8.90
2022-11-27T04:26:25.095Z,8.87
2022-11-27T04:30:27.833Z,8.90
2022-11-27T04:34:30.622Z,11.27
2022-11-27T04:38:33.388Z,8.40
2022-11-27T04:42:37.490Z,7.20
2022-11-27T04:46:40.364Z,8.53
2022-11-27T04:50:43.115Z,10.73
2022-11-27T04:54:45.856Z,8.33
2022-11-27T04:58:49.914Z,10.77
2022-11-27T05:02:52.709Z,8.17
2022-11-27T05:06:55.471Z,7.17
2022-11-27T05:11:02.636Z,7.73
2022-11-27T05:15:08.302Z,7.13
2022-11-27T05:19:11.399Z,6.00
2022-11-27T05:23:14.215Z,7.70
2022-11-27T05:27:17.000Z,9.20
2022-11-27T05:31:21.183Z,6.80
2022-11-27T05:35:23.935Z,5.80
2022-11-27T05:39:26.660Z,6.73
2022-11-27T05:43:29.428Z,7.00
2022-11-27T05:47:33.558Z,6.43
2022-11-27T05:51:36.250Z,7.73
2022-11-27T05:55:39.039Z,9.10
2022-11-27T05:59:41.714Z,8.93
2022-11-27T06:03:45.925Z,5.33
2022-11-27T06:07:49.433Z,6.27
2022-11-27T06:11:52.202Z,8.80
2022-11-27T06:15:54.953Z,6.57
2022-11-27T06:19:59.038Z,6.63
2022-11-27T06:24:03.085Z,6.47
2022-11-27T06:28:05.787Z,6.70
2022-11-27T06:32:08.673Z,6.43
2022-11-27T06:36:12.816Z,7.47
2022-11-27T06:40:15.644Z,11.10
2022-11-27T06:44:18.387Z,7.33
2022-11-27T06:48:21.065Z,8.13
2022-11-27T06:52:25.113Z,6.43
2022-11-27T06:56:29.955Z,7.47
2022-11-27T07:00:32.669Z,10.67
2022-11-27T07:04:35.381Z,8.90
2022-11-27T07:08:40.818Z,9.10
2022-11-27T07:12:43.533Z,8.40
2022-11-27T07:16:46.349Z,8.33
2022-11-27T07:20:56.262Z,6.87
2022-11-27T07:25:00.856Z,7.03
2022-11-27T07:29:03.797Z,7.43
2022-11-27T07:33:06.703Z,8.40
2022-11-27T07:37:09.446Z,8.77
2022-11-27T07:41:14.420Z,7.83
2022-11-27T07:45:17.270Z,8.33
2022-11-27T07:49:20.087Z,9.90
2022-11-27T07:53:22.827Z,8.30
2022-11-27T07:57:28.306Z,8.83
2022-11-27T08:01:31.068Z,6.60
2022-11-27T08:05:35.136Z,8.50
2022-11-27T08:09:39.373Z,7.43
2022-11-27T08:13:43.436Z,9.70
2022-11-27T08:17:46.158Z,9.47
2022-11-27T08:21:48.889Z,12.87
2022-11-27T08:25:51.625Z,12.13
2022-11-27T08:29:55.718Z,9.37
2022-11-27T08:33:59.462Z,9.10
2022-11-27T08:38:02.157Z,9.23
2022-11-27T08:42:04.973Z,10.67
2022-11-27T08:46:09.445Z,7.60
2022-11-27T08:50:12.372Z,9.43
2022-11-27T08:54:15.147Z,8.87
2022-11-27T08:58:17.897Z,8.87
2022-11-27T09:02:22.282Z,9.50
2022-11-27T09:06:28.080Z,7.90
2022-11-27T09:10:30.810Z,8.63
2022-11-27T09:14:33.500Z,7.47
2022-11-27T09:18:37.947Z,9.00
2022-11-27T09:22:40.928Z,9.03
2022-11-27T09:26:44.662Z,11.20
2022-11-27T09:30:47.694Z,8.67
2022-11-27T09:34:53.788Z,11.37
2022-11-27T09:38:56.552Z,8.37
2022-11-27T09:43:08.887Z,11.67
2022-11-27T09:47:18.902Z,9.33
2022-11-27T09:51:29.317Z,7.87
2022-11-27T09:55:37.879Z,8.23
2022-11-27T09:59:44.248Z,9.53
2022-11-27T10:03:47.379Z,8.90
2022-11-27T10:08:19.615Z,10.27
2022-11-27T10:12:30.833Z,10.40
2022-11-27T10:16:44.337Z,9.60
2022-11-27T10:20:51.018Z,7.20
2022-11-27T10:25:05.087Z,10.50
2022-11-27T10:29:28.178Z,9.93
2022-11-27T10:33:39.591Z,9.80
2022-11-27T10:37:47.048Z,10.60
2022-11-27T10:41:58.114Z,9.23
2022-11-27T10:46:06.870Z,8.50
2022-11-27T10:50:14.699Z,8.63
2022-11-27T10:54:24.240Z,12.00
2022-11-27T10:58:34.977Z,10.27
2022-11-27T11:02:39.436Z,10.23
2022-11-27T11:06:44.916Z,11.43
2022-11-27T11:10:52.989Z,15.53
2022-11-27T11:15:01.571Z,10.47
2022-11-27T11:19:06.133Z,10.73
2022-11-27T11:23:18.513Z,11.47
2022-11-27T11:27:24.179Z,13.07
2022-11-27T11:31:34.075Z,11.33
2022-11-27T11:35:37.849Z,13.43
2022-11-27T11:39:46.321Z,14.20
2022-11-27T11:43:57.638Z,12.97
2022-11-27T11:48:03.032Z,10.23
2022-11-27T11:52:21.822Z,10.60
2022-11-27T11:56:32.562Z,11.83
2022-11-27T12:01:04.737Z,11.60
2022-11-27T12:05:23.482Z,17.30
2022-11-27T12:09:38.826Z,12.57
2022-11-27T12:13:54.423Z,15.27
2022-11-27T12:18:01.958Z,15.40
2022-11-27T12:22:17.973Z,13.53
2022-11-27T12:26:29.927Z,15.70
2022-11-27T12:30:41.795Z,15.40
2022-11-27T12:34:59.854Z,13.70
2022-11-27T12:39:23.766Z,14.70
2022-11-27T12:43:28.068Z,14.50
2022-11-27T12:47:40.043Z,11.80
2022-11-27T12:51:46.642Z,12.57
2022-11-27T12:55:57.208Z,11.10
2022-11-27T13:00:05.133Z,11.40
2022-11-27T13:04:20.198Z,11.40
2022-11-27T13:08:27.977Z,13.80
2022-11-27T13:12:36.584Z,13.23
2022-11-27T13:16:46.921Z,12.80
2022-11-27T13:20:53.028Z,15.10
2022-11-27T13:24:56.729Z,11.37
2022-11-27T13:29:04.757Z,11.97
2022-11-27T13:33:09.127Z,15.43
2022-11-27T13:37:27.781Z,12.53
2022-11-27T13:41:34.919Z,13.33
2022-11-27T13:45:39.208Z,11.87
2022-11-27T13:49:43.376Z,11.37
2022-11-27T13:53:46.149Z,16.07
2022-11-27T13:57:53.409Z,12.10
2022-11-27T14:02:00.060Z,13.77
2022-11-27T14:06:02.893Z,11.43
2022-11-27T14:10:14.473Z,15.67
2022-11-27T14:14:20.923Z,15.07
2022-11-27T14:18:25.115Z,14.27
2022-11-27T14:22:53.995Z,18.13
2022-11-27T14:26:59.488Z,14.63
2022-11-27T14:31:03.891Z,12.63
2022-11-27T14:35:20.643Z,11.90
2022-11-27T14:39:25.278Z,15.50
2022-11-27T14:43:28.003Z,17.33
2022-11-27T14:47:31.465Z,15.60
2022-11-27T14:51:37.329Z,15.80
2022-11-27T14:55:41.193Z,14.90
2022-11-27T14:59:45.218Z,18.93
2022-11-27T15:03:58.498Z,31.73
2022-11-27T15:08:03.560Z,20.73
2022-11-27T15:12:17.951Z,22.33
2022-11-27T15:16:25.826Z,19.63
2022-11-27T15:20:37.072Z,20.60
2022-11-27T15:24:41.196Z,23.27
2022-11-27T15:28:50.946Z,18.93
2022-11-27T15:32:55.726Z,16.63
2022-11-27T15:37:01.476Z,18.77
2022-11-27T15:41:05.711Z,21.93
2022-11-27T15:45:11.091Z,14.97
2022-11-27T15:49:15.548Z,19.03
2022-11-27T15:53:18.526Z,16.40
2022-11-27T15:57:22.624Z,14.10
2022-11-27T16:01:25.484Z,13.87
2022-11-27T16:05:28.343Z,14.00
2022-11-27T16:09:34.610Z,15.53
2022-11-27T16:13:39.947Z,23.20
2022-11-27T16:17:45.099Z,38.80
2022-11-27T16:21:48.639Z,44.97
2022-11-27T16:25:51.337Z,77.70
2022-11-27T16:29:55.505Z,25.03
2022-11-27T16:33:58.495Z,21.03
2022-11-27T16:38:01.583Z,12.47
2022-11-27T16:42:04.619Z,12.90
2022-11-27T16:46:11.556Z,16.27
2022-11-27T16:50:14.317Z,34.83
2022-11-27T16:54:19.161Z,16.97
2022-11-27T16:58:22.331Z,11.03
2022-11-27T17:02:28.658Z,10.30
2022-11-27T17:06:33.380Z,9.30
2022-11-27T17:10:36.146Z,9.60
2022-11-27T17:14:39.360Z,9.43
2022-11-27T17:18:45.989Z,10.70
2022-11-27T17:22:49.840Z,8.60
2022-11-27T17:26:55.244Z,8.63
2022-11-27T17:31:11.057Z,8.13
2022-11-27T17:35:16.424Z,9.43
2022-11-27T17:39:19.221Z,10.87
2022-11-27T17:43:22.064Z,9.27
2022-11-27T17:47:24.809Z,7.57
2022-11-27T17:51:30.530Z,8.50
2022-11-27T17:55:34.177Z,7.53
2022-11-27T17:59:37.103Z,9.00
2022-11-27T18:03:40.804Z,8.00
2022-11-27T18:07:45.089Z,7.23
2022-11-27T18:11:48.038Z,7.70
2022-11-27T18:15:51.524Z,8.20
2022-11-27T18:19:57.030Z,7.80
2022-11-27T18:28:24.581Z,9.30
2022-11-27T18:32:27.472Z,8.30
2022-11-27T18:36:31.051Z,10.70
2022-11-27T18:40:37.381Z,9.00
2022-11-27T18:44:44.655Z,8.87
2022-11-27T18:48:51.313Z,9.13
2022-11-27T18:52:54.292Z,8.37
2022-11-27T18:56:58.709Z,10.53
2022-11-27T19:01:02.493Z,9.97
2022-11-27T19:05:06.090Z,8.50
2022-11-27T19:09:10.892Z,8.03
2022-11-27T19:13:15.067Z,7.43
2022-11-27T19:17:18.498Z,8.93
2022-11-27T19:21:23.131Z,8.00
2022-11-27T19:25:25.994Z,10.00
2022-11-27T19:29:30.707Z,9.87
2022-11-27T19:33:33.875Z,9.17
2022-11-27T19:37:37.928Z,8.67
2022-11-27T19:41:41.608Z,8.97
2022-11-27T19:45:46.130Z,9.17
2022-11-27T19:49:49.551Z,8.50
2022-11-27T19:53:52.447Z,9.10
2022-11-27T19:57:55.406Z,8.23
2022-11-27T20:02:00.297Z,8.80
2022-11-27T20:06:06.877Z,7.70
2022-11-27T20:10:10.816Z,9.23
2022-11-27T20:14:13.720Z,8.00
2022-11-27T20:18:18.158Z,8.27
2022-11-27T20:22:20.935Z,8.37
2022-11-27T20:26:25.455Z,8.67
2022-11-27T20:30:30.675Z,7.97
2022-11-27T20:34:35.045Z,9.20
2022-11-27T20:38:38.596Z,8.50
2022-11-27T20:42:41.533Z,10.57
2022-11-27T20:46:46.130Z,10.00
2022-11-27T20:50:51.501Z,11.53
2022-11-27T20:54:55.062Z,8.60
2022-11-27T20:58:59.457Z,9.97
2022-11-27T21:03:03.111Z,8.17
2022-11-27T21:07:07.623Z,7.97
2022-11-27T21:11:12.637Z,8.53
2022-11-27T21:15:15.473Z,9.13
2022-11-27T21:19:20.567Z,8.10
2022-11-27T21:23:25.687Z,9.47
2022-11-27T21:27:29.480Z,8.47
2022-11-27T21:31:37.273Z,8.90
2022-11-27T21:35:40.644Z,9.50
2022-11-27T21:39:45.143Z,9.23
2022-11-27T21:43:54.590Z,9.27
2022-11-27T21:47:57.307Z,9.17
2022-11-27T21:52:00.204Z,9.37
2022-11-27T21:56:10.719Z,9.87
2022-11-27T22:00:14.067Z,10.70
2022-11-27T22:04:17.595Z,10.50
2022-11-27T22:08:20.450Z,10.20
2022-11-27T22:12:24.782Z,9.20
2022-11-27T22:16:29.767Z,8.70
2022-11-27T22:20:32.538Z,8.73
2022-11-27T22:24:35.399Z,9.90
2022-11-27T22:28:40.334Z,9.43
2022-11-27T22:32:44.299Z,8.70
2022-11-27T22:36:47.705Z,10.27
2022-11-27T22:40:50.550Z,8.50
2022-11-27T22:44:54.718Z,8.57
2022-11-27T22:48:58.700Z,8.23
2022-11-27T22:53:01.535Z,7.80
2022-11-27T22:57:07.260Z,8.57
2022-11-27T23:01:17.108Z,8.50
2022-11-27T23:05:20.433Z,8.63
2022-11-27T23:09:24.058Z,8.80
2022-11-27T23:13:26.863Z,9.30
2022-11-27T23:17:31.172Z,8.97
2022-11-27T23:21:37.725Z,8.80
2022-11-27T23:25:40.857Z,8.83
2022-11-27T23:29:43.635Z,9.00
2022-11-27T23:33:48.079Z,9.43
2022-11-27T23:37:50.847Z,7.07
2022-11-27T23:41:53.834Z,10.07
2022-11-27T23:45:56.962Z,8.63
2022-11-27T23:50:01.788Z,8.67
2022-11-27T23:54:09.584Z,8.17
2022-11-27T23:58:12.579Z,8.70
